sensor_id;sensor_type;location;lat;lon;timestamp;P1;durP1;ratioP1;P2;durP2;ratioP2
19402;SDS011;9837;48.888;8.998;2023-07-24T00:00:13;9.17;;;6.50;;
19402;SDS011;9837;48.888;8.998;2023-07-24T00:02:39;10.97;;;6.30;;
19402;SDS011;9837;48.888;8.998;2023-07-24T00:05:05;12.90;;;7.27;;
19402;SDS011;9837;48.888;8.998;2023-07-24T00:07:30;11.50;;;6.97;;
19402;SDS011;9837;48.888;8.998;2023-07-24T00:09:56;12.53;;;7.17;;
19402;SDS011;9837;48.888;8.998;2023-07-24T00:12:22;10.50;;;6.90;;
19402;SDS011;9837;48.888;8.998;2023-07-24T00:14:47;12.17;;;7.07;;
19402;SDS011;9837;48.888;8.998;2023-07-24T00:17:13;10.90;;;7.67;;
19402;SDS011;9837;48.888;8.998;2023-07-24T00:19:38;11.80;;;7.43;;
19402;SDS011;9837;48.888;8.998;2023-07-24T00:22:04;9.27;;;6.50;;
19402;SDS011;9837;48.888;8.998;2023-07-24T00:24:30;9.53;;;6.57;;
19402;SDS011;9837;48.888;8.998;2023-07-24T00:26:56;10.23;;;6.80;;
19402;SDS011;9837;48.888;8.998;2023-07-24T00:29:22;11.67;;;7.23;;
19402;SDS011;9837;48.888;8.998;2023-07-24T00:31:51;10.73;;;6.93;;
19402;SDS011;9837;48.888;8.998;2023-07-24T00:34:16;10.97;;;6.80;;
19402;SDS011;9837;48.888;8.998;2023-07-24T00:36:42;13.00;;;7.43;;
19402;SDS011;9837;48.888;8.998;2023-07-24T00:39:08;13.80;;;7.50;;
19402;SDS011;9837;48.888;8.998;2023-07-24T00:41:33;14.73;;;8.03;;
19402;SDS011;9837;48.888;8.998;2023-07-24T00:43:59;12.33;;;6.93;;
19402;SDS011;9837;48.888;8.998;2023-07-24T00:46:24;10.90;;;7.00;;
19402;SDS011;9837;48.888;8.998;2023-07-24T00:48:50;10.57;;;7.13;;
19402;SDS011;9837;48.888;8.998;2023-07-24T00:51:17;12.93;;;6.77;;
19402;SDS011;9837;48.888;8.998;2023-07-24T00:53:43;11.20;;;6.60;;
19402;SDS011;9837;48.888;8.998;2023-07-24T00:56:09;10.37;;;7.17;;
19402;SDS011;9837;48.888;8.998;2023-07-24T00:58:36;12.63;;;7.07;;
19402;SDS011;9837;48.888;8.998;2023-07-24T01:01:03;9.37;;;6.67;;
19402;SDS011;9837;48.888;8.998;2023-07-24T01:03:35;13.90;;;7.30;;
19402;SDS011;9837;48.888;8.998;2023-07-24T01:06:01;10.00;;;7.17;;
19402;SDS011;9837;48.888;8.998;2023-07-24T01:08:27;10.03;;;7.30;;
19402;SDS011;9837;48.888;8.998;2023-07-24T01:10:53;12.10;;;7.57;;
19402;SDS011;9837;48.888;8.998;2023-07-24T01:13:24;9.83;;;7.20;;
19402;SDS011;9837;48.888;8.998;2023-07-24T01:16:04;11.60;;;7.37;;
19402;SDS011;9837;48.888;8.998;2023-07-24T01:18:35;11.60;;;7.20;;
19402;SDS011;9837;48.888;8.998;2023-07-24T01:21:03;9.80;;;7.57;;
19402;SDS011;9837;48.888;8.998;2023-07-24T01:23:51;11.50;;;7.50;;
19402;SDS011;9837;48.888;8.998;2023-07-24T01:26:38;9.67;;;7.13;;
19402;SDS011;9837;48.888;8.998;2023-07-24T01:29:04;11.40;;;7.57;;
19402;SDS011;9837;48.888;8.998;2023-07-24T01:31:29;12.37;;;7.63;;
19402;SDS011;9837;48.888;8.998;2023-07-24T01:33:55;9.70;;;6.93;;
19402;SDS011;9837;48.888;8.998;2023-07-24T01:36:20;12.60;;;8.00;;
19402;SDS011;9837;48.888;8.998;2023-07-24T01:38:47;11.40;;;7.67;;
19402;SDS011;9837;48.888;8.998;2023-07-24T01:41:14;11.80;;;7.40;;
19402;SDS011;9837;48.888;8.998;2023-07-24T01:43:40;13.63;;;7.77;;
19402;SDS011;9837;48.888;8.998;2023-07-24T01:46:05;10.93;;;6.63;;
19402;SDS011;9837;48.888;8.998;2023-07-24T01:48:31;9.50;;;6.80;;
19402;SDS011;9837;48.888;8.998;2023-07-24T01:50:56;11.63;;;7.70;;
19402;SDS011;9837;48.888;8.998;2023-07-24T01:53:22;16.57;;;8.13;;
19402;SDS011;9837;48.888;8.998;2023-07-24T01:55:47;12.57;;;8.93;;
19402;SDS011;9837;48.888;8.998;2023-07-24T01:58:13;11.03;;;7.30;;
19402;SDS011;9837;48.888;8.998;2023-07-24T02:00:39;12.40;;;8.30;;
19402;SDS011;9837;48.888;8.998;2023-07-24T02:03:04;12.40;;;7.93;;
19402;SDS011;9837;48.888;8.998;2023-07-24T02:05:30;11.77;;;7.50;;
19402;SDS011;9837;48.888;8.998;2023-07-24T02:07:56;12.53;;;7.43;;
19402;SDS011;9837;48.888;8.998;2023-07-24T02:10:21;10.00;;;6.97;;
19402;SDS011;9837;48.888;8.998;2023-07-24T02:12:47;11.17;;;7.40;;
19402;SDS011;9837;48.888;8.998;2023-07-24T02:15:12;11.90;;;7.07;;
19402;SDS011;9837;48.888;8.998;2023-07-24T02:17:38;11.00;;;7.87;;
19402;SDS011;9837;48.888;8.998;2023-07-24T02:20:04;9.90;;;7.27;;
19402;SDS011;9837;48.888;8.998;2023-07-24T02:22:30;9.43;;;6.87;;
19402;SDS011;9837;48.888;8.998;2023-07-24T02:24:55;10.10;;;7.27;;
19402;SDS011;9837;48.888;8.998;2023-07-24T02:27:27;10.50;;;7.50;;
19402;SDS011;9837;48.888;8.998;2023-07-24T02:29:56;10.33;;;6.83;;
19402;SDS011;9837;48.888;8.998;2023-07-24T02:32:22;10.10;;;7.30;;
19402;SDS011;9837;48.888;8.998;2023-07-24T02:34:51;12.37;;;6.67;;
19402;SDS011;9837;48.888;8.998;2023-07-24T02:37:17;9.17;;;6.73;;
19402;SDS011;9837;48.888;8.998;2023-07-24T02:39:43;10.90;;;7.30;;
19402;SDS011;9837;48.888;8.998;2023-07-24T02:42:08;10.43;;;6.97;;
19402;SDS011;9837;48.888;8.998;2023-07-24T02:44:34;13.93;;;7.43;;
19402;SDS011;9837;48.888;8.998;2023-07-24T02:47:00;11.50;;;7.20;;
19402;SDS011;9837;48.888;8.998;2023-07-24T02:49:25;12.50;;;7.73;;
19402;SDS011;9837;48.888;8.998;2023-07-24T02:51:51;11.07;;;7.50;;
19402;SDS011;9837;48.888;8.998;2023-07-24T02:54:16;13.93;;;8.07;;
19402;SDS011;9837;48.888;8.998;2023-07-24T02:56:42;13.93;;;7.03;;
19402;SDS011;9837;48.888;8.998;2023-07-24T02:59:07;14.27;;;7.90;;
19402;SDS011;9837;48.888;8.998;2023-07-24T03:01:33;12.27;;;7.73;;
19402;SDS011;9837;48.888;8.998;2023-07-24T03:03:58;11.97;;;7.50;;
19402;SDS011;9837;48.888;8.998;2023-07-24T03:06:25;12.60;;;7.70;;
19402;SDS011;9837;48.888;8.998;2023-07-24T03:08:50;9.60;;;7.03;;
19402;SDS011;9837;48.888;8.998;2023-07-24T03:11:16;10.80;;;7.20;;
19402;SDS011;9837;48.888;8.998;2023-07-24T03:13:41;8.87;;;6.30;;
19402;SDS011;9837;48.888;8.998;2023-07-24T03:16:08;10.23;;;6.70;;
19402;SDS011;9837;48.888;8.998;2023-07-24T03:18:33;12.93;;;7.30;;
19402;SDS011;9837;48.888;8.998;2023-07-24T03:20:59;10.63;;;7.03;;
19402;SDS011;9837;48.888;8.998;2023-07-24T03:23:24;11.20;;;7.40;;
19402;SDS011;9837;48.888;8.998;2023-07-24T03:25:50;12.00;;;7.47;;
19402;SDS011;9837;48.888;8.998;2023-07-24T03:28:15;10.90;;;7.07;;
19402;SDS011;9837;48.888;8.998;2023-07-24T03:30:41;9.43;;;6.53;;
19402;SDS011;9837;48.888;8.998;2023-07-24T03:33:06;9.20;;;6.90;;
19402;SDS011;9837;48.888;8.998;2023-07-24T03:35:32;10.13;;;6.60;;
19402;SDS011;9837;48.888;8.998;2023-07-24T03:37:58;11.27;;;6.93;;
19402;SDS011;9837;48.888;8.998;2023-07-24T03:40:24;9.37;;;6.90;;
19402;SDS011;9837;48.888;8.998;2023-07-24T03:42:49;9.23;;;6.43;;
19402;SDS011;9837;48.888;8.998;2023-07-24T03:45:15;10.50;;;6.90;;
19402;SDS011;9837;48.888;8.998;2023-07-24T03:47:40;9.00;;;6.83;;
19402;SDS011;9837;48.888;8.998;2023-07-24T03:50:06;9.87;;;6.80;;
19402;SDS011;9837;48.888;8.998;2023-07-24T03:52:32;10.33;;;7.30;;
19402;SDS011;9837;48.888;8.998;2023-07-24T03:54:57;10.17;;;6.70;;
19402;SDS011;9837;48.888;8.998;2023-07-24T03:57:22;9.57;;;6.77;;
19402;SDS011;9837;48.888;8.998;2023-07-24T03:59:48;8.97;;;6.07;;
19402;SDS011;9837;48.888;8.998;2023-07-24T04:02:13;11.40;;;6.37;;
19402;SDS011;9837;48.888;8.998;2023-07-24T04:04:39;12.03;;;6.80;;
19402;SDS011;9837;48.888;8.998;2023-07-24T04:07:05;9.47;;;6.70;;
19402;SDS011;9837;48.888;8.998;2023-07-24T04:09:30;9.90;;;5.93;;
19402;SDS011;9837;48.888;8.998;2023-07-24T04:11:56;10.00;;;6.03;;
19402;SDS011;9837;48.888;8.998;2023-07-24T04:14:21;11.57;;;7.27;;
19402;SDS011;9837;48.888;8.998;2023-07-24T04:16:47;8.77;;;6.40;;
19402;SDS011;9837;48.888;8.998;2023-07-24T04:19:12;10.43;;;6.53;;
19402;SDS011;9837;48.888;8.998;2023-07-24T04:21:38;11.30;;;6.63;;
19402;SDS011;9837;48.888;8.998;2023-07-24T04:24:04;8.87;;;6.27;;
19402;SDS011;9837;48.888;8.998;2023-07-24T04:26:29;8.77;;;6.63;;
19402;SDS011;9837;48.888;8.998;2023-07-24T04:28:55;9.00;;;6.50;;
19402;SDS011;9837;48.888;8.998;2023-07-24T04:31:20;16.73;;;6.63;;
19402;SDS011;9837;48.888;8.998;2023-07-24T04:33:46;10.23;;;6.23;;
19402;SDS011;9837;48.888;8.998;2023-07-24T04:36:11;10.27;;;6.50;;
19402;SDS011;9837;48.888;8.998;2023-07-24T04:38:37;9.73;;;6.50;;
19402;SDS011;9837;48.888;8.998;2023-07-24T04:41:02;10.03;;;6.27;;
19402;SDS011;9837;48.888;8.998;2023-07-24T04:43:28;8.93;;;6.10;;
19402;SDS011;9837;48.888;8.998;2023-07-24T04:45:54;10.77;;;5.70;;
19402;SDS011;9837;48.888;8.998;2023-07-24T04:48:20;9.53;;;6.77;;
19402;SDS011;9837;48.888;8.998;2023-07-24T04:50:45;13.60;;;6.57;;
19402;SDS011;9837;48.888;8.998;2023-07-24T04:53:11;8.70;;;6.60;;
19402;SDS011;9837;48.888;8.998;2023-07-24T04:55:38;9.13;;;6.57;;
19402;SDS011;9837;48.888;8.998;2023-07-24T04:58:03;10.27;;;6.53;;
19402;SDS011;9837;48.888;8.998;2023-07-24T05:00:29;10.97;;;6.23;;
19402;SDS011;9837;48.888;8.998;2023-07-24T05:02:55;10.87;;;6.43;;
19402;SDS011;9837;48.888;8.998;2023-07-24T05:05:23;12.50;;;7.37;;
19402;SDS011;9837;48.888;8.998;2023-07-24T05:07:49;12.57;;;6.77;;
19402;SDS011;9837;48.888;8.998;2023-07-24T05:10:14;10.30;;;6.83;;
19402;SDS011;9837;48.888;8.998;2023-07-24T05:12:40;13.03;;;7.10;;
19402;SDS011;9837;48.888;8.998;2023-07-24T05:15:07;10.73;;;6.97;;
19402;SDS011;9837;48.888;8.998;2023-07-24T05:17:33;11.63;;;6.70;;
19402;SDS011;9837;48.888;8.998;2023-07-24T05:19:58;10.03;;;6.70;;
19402;SDS011;9837;48.888;8.998;2023-07-24T05:22:24;12.47;;;7.17;;
19402;SDS011;9837;48.888;8.998;2023-07-24T05:24:50;9.90;;;6.93;;
19402;SDS011;9837;48.888;8.998;2023-07-24T05:27:15;8.83;;;6.17;;
19402;SDS011;9837;48.888;8.998;2023-07-24T05:29:41;9.27;;;6.80;;
19402;SDS011;9837;48.888;8.998;2023-07-24T05:32:06;10.90;;;6.90;;
19402;SDS011;9837;48.888;8.998;2023-07-24T05:34:32;10.87;;;6.93;;
19402;SDS011;9837;48.888;8.998;2023-07-24T05:36:57;12.77;;;7.30;;
19402;SDS011;9837;48.888;8.998;2023-07-24T05:39:23;8.73;;;6.13;;
19402;SDS011;9837;48.888;8.998;2023-07-24T05:41:48;11.90;;;7.13;;
19402;SDS011;9837;48.888;8.998;2023-07-24T05:44:14;10.07;;;6.60;;
19402;SDS011;9837;48.888;8.998;2023-07-24T05:46:39;11.37;;;7.00;;
19402;SDS011;9837;48.888;8.998;2023-07-24T05:49:05;8.83;;;6.67;;
19402;SDS011;9837;48.888;8.998;2023-07-24T05:51:30;8.83;;;6.27;;
19402;SDS011;9837;48.888;8.998;2023-07-24T05:53:56;10.70;;;6.67;;
19402;SDS011;9837;48.888;8.998;2023-07-24T05:56:21;10.83;;;6.77;;
19402;SDS011;9837;48.888;8.998;2023-07-24T05:58:47;9.63;;;7.23;;
19402;SDS011;9837;48.888;8.998;2023-07-24T06:01:12;7.90;;;6.27;;
19402;SDS011;9837;48.888;8.998;2023-07-24T06:03:38;12.90;;;6.00;;
19402;SDS011;9837;48.888;8.998;2023-07-24T06:06:04;11.17;;;6.47;;
19402;SDS011;9837;48.888;8.998;2023-07-24T06:08:29;9.37;;;6.37;;
19402;SDS011;9837;48.888;8.998;2023-07-24T06:10:55;9.40;;;6.60;;
19402;SDS011;9837;48.888;8.998;2023-07-24T06:13:20;9.37;;;6.97;;
19402;SDS011;9837;48.888;8.998;2023-07-24T06:15:47;10.87;;;7.30;;
19402;SDS011;9837;48.888;8.998;2023-07-24T06:18:16;10.20;;;6.80;;
19402;SDS011;9837;48.888;8.998;2023-07-24T06:20:41;10.03;;;6.50;;
19402;SDS011;9837;48.888;8.998;2023-07-24T06:23:07;8.37;;;6.00;;
19402;SDS011;9837;48.888;8.998;2023-07-24T06:25:32;9.63;;;6.30;;
19402;SDS011;9837;48.888;8.998;2023-07-24T06:27:58;8.80;;;6.73;;
19402;SDS011;9837;48.888;8.998;2023-07-24T06:30:24;9.70;;;7.13;;
19402;SDS011;9837;48.888;8.998;2023-07-24T06:32:50;10.47;;;7.13;;
19402;SDS011;9837;48.888;8.998;2023-07-24T06:35:15;10.50;;;6.90;;
19402;SDS011;9837;48.888;8.998;2023-07-24T06:37:41;12.70;;;7.43;;
19402;SDS011;9837;48.888;8.998;2023-07-24T06:40:07;9.80;;;7.00;;
19402;SDS011;9837;48.888;8.998;2023-07-24T06:42:33;14.43;;;7.77;;
19402;SDS011;9837;48.888;8.998;2023-07-24T06:44:58;7.93;;;6.33;;
19402;SDS011;9837;48.888;8.998;2023-07-24T06:47:25;10.87;;;6.63;;
19402;SDS011;9837;48.888;8.998;2023-07-24T06:56:11;9.33;;;7.23;;
19402;SDS011;9837;48.888;8.998;2023-07-24T06:58:37;9.80;;;6.83;;
19402;SDS011;9837;48.888;8.998;2023-07-24T07:01:06;11.20;;;7.27;;
19402;SDS011;9837;48.888;8.998;2023-07-24T07:03:32;13.67;;;7.63;;
19402;SDS011;9837;48.888;8.998;2023-07-24T07:05:59;10.60;;;7.37;;
19402;SDS011;9837;48.888;8.998;2023-07-24T07:08:26;10.57;;;7.27;;
19402;SDS011;9837;48.888;8.998;2023-07-24T07:10:58;11.37;;;6.93;;
19402;SDS011;9837;48.888;8.998;2023-07-24T07:13:24;9.53;;;6.73;;
19402;SDS011;9837;48.888;8.998;2023-07-24T07:15:50;11.70;;;7.20;;
19402;SDS011;9837;48.888;8.998;2023-07-24T07:18:16;9.67;;;7.07;;
19402;SDS011;9837;48.888;8.998;2023-07-24T07:20:48;20.30;;;17.47;;
19402;SDS011;9837;48.888;8.998;2023-07-24T07:23:14;13.40;;;7.50;;
19402;SDS011;9837;48.888;8.998;2023-07-24T07:25:40;10.63;;;7.67;;
19402;SDS011;9837;48.888;8.998;2023-07-24T07:28:08;11.10;;;7.13;;
19402;SDS011;9837;48.888;8.998;2023-07-24T07:30:34;10.43;;;7.20;;
19402;SDS011;9837;48.888;8.998;2023-07-24T07:33:00;12.43;;;7.60;;
19402;SDS011;9837;48.888;8.998;2023-07-24T07:35:26;12.10;;;7.67;;
19402;SDS011;9837;48.888;8.998;2023-07-24T07:37:51;12.97;;;7.20;;
19402;SDS011;9837;48.888;8.998;2023-07-24T07:40:17;11.50;;;7.73;;
19402;SDS011;9837;48.888;8.998;2023-07-24T07:42:43;12.17;;;7.73;;
19402;SDS011;9837;48.888;8.998;2023-07-24T07:45:10;12.60;;;7.40;;
19402;SDS011;9837;48.888;8.998;2023-07-24T07:47:36;13.17;;;7.60;;
19402;SDS011;9837;48.888;8.998;2023-07-24T07:50:02;13.93;;;7.57;;
19402;SDS011;9837;48.888;8.998;2023-07-24T07:52:28;10.27;;;7.80;;
19402;SDS011;9837;48.888;8.998;2023-07-24T07:54:53;11.13;;;7.17;;
19402;SDS011;9837;48.888;8.998;2023-07-24T07:57:19;11.93;;;7.63;;
19402;SDS011;9837;48.888;8.998;2023-07-24T07:59:45;10.43;;;6.97;;
19402;SDS011;9837;48.888;8.998;2023-07-24T08:02:11;11.23;;;7.20;;
19402;SDS011;9837;48.888;8.998;2023-07-24T08:04:36;13.30;;;7.90;;
19402;SDS011;9837;48.888;8.998;2023-07-24T08:07:02;11.10;;;6.77;;
19402;SDS011;9837;48.888;8.998;2023-07-24T08:09:28;10.27;;;6.97;;
19402;SDS011;9837;48.888;8.998;2023-07-24T08:11:53;8.83;;;7.10;;
19402;SDS011;9837;48.888;8.998;2023-07-24T08:14:19;10.23;;;7.67;;
19402;SDS011;9837;48.888;8.998;2023-07-24T08:16:44;10.17;;;7.53;;
19402;SDS011;9837;48.888;8.998;2023-07-24T08:19:13;10.10;;;7.47;;
19402;SDS011;9837;48.888;8.998;2023-07-24T08:21:38;9.87;;;6.77;;
19402;SDS011;9837;48.888;8.998;2023-07-24T08:24:05;13.80;;;7.97;;
19402;SDS011;9837;48.888;8.998;2023-07-24T08:26:31;11.57;;;7.70;;
19402;SDS011;9837;48.888;8.998;2023-07-24T08:28:57;9.90;;;7.47;;
19402;SDS011;9837;48.888;8.998;2023-07-24T08:31:22;10.03;;;7.10;;
19402;SDS011;9837;48.888;8.998;2023-07-24T08:33:48;13.47;;;7.50;;
19402;SDS011;9837;48.888;8.998;2023-07-24T08:36:13;11.73;;;7.80;;
19402;SDS011;9837;48.888;8.998;2023-07-24T08:38:39;14.40;;;7.30;;
19402;SDS011;9837;48.888;8.998;2023-07-24T08:41:09;9.23;;;7.00;;
19402;SDS011;9837;48.888;8.998;2023-07-24T08:43:37;12.20;;;7.57;;
19402;SDS011;9837;48.888;8.998;2023-07-24T08:46:04;11.50;;;7.10;;
19402;SDS011;9837;48.888;8.998;2023-07-24T08:48:31;9.23;;;7.17;;
19402;SDS011;9837;48.888;8.998;2023-07-24T08:51:01;10.30;;;7.43;;
19402;SDS011;9837;48.888;8.998;2023-07-24T08:53:28;12.73;;;8.00;;
19402;SDS011;9837;48.888;8.998;2023-07-24T08:55:55;13.53;;;7.90;;
19402;SDS011;9837;48.888;8.998;2023-07-24T08:58:21;11.03;;;7.37;;
19402;SDS011;9837;48.888;8.998;2023-07-24T09:00:47;11.60;;;7.13;;
19402;SDS011;9837;48.888;8.998;2023-07-24T09:03:13;10.47;;;8.00;;
19402;SDS011;9837;48.888;8.998;2023-07-24T09:05:39;10.20;;;6.37;;
19402;SDS011;9837;48.888;8.998;2023-07-24T09:08:04;10.30;;;6.80;;
19402;SDS011;9837;48.888;8.998;2023-07-24T09:10:30;11.50;;;7.20;;
19402;SDS011;9837;48.888;8.998;2023-07-24T09:12:56;11.10;;;7.10;;
19402;SDS011;9837;48.888;8.998;2023-07-24T09:15:21;9.13;;;6.73;;
19402;SDS011;9837;48.888;8.998;2023-07-24T09:17:50;8.50;;;6.77;;
19402;SDS011;9837;48.888;8.998;2023-07-24T09:20:18;9.27;;;6.73;;
19402;SDS011;9837;48.888;8.998;2023-07-24T09:22:53;16.40;;;8.03;;
19402;SDS011;9837;48.888;8.998;2023-07-24T09:25:32;10.63;;;7.00;;
19402;SDS011;9837;48.888;8.998;2023-07-24T09:27:58;9.10;;;6.50;;
19402;SDS011;9837;48.888;8.998;2023-07-24T09:30:24;11.23;;;6.90;;
19402;SDS011;9837;48.888;8.998;2023-07-24T09:32:53;8.27;;;6.30;;
19402;SDS011;9837;48.888;8.998;2023-07-24T09:35:20;12.97;;;7.57;;
19402;SDS011;9837;48.888;8.998;2023-07-24T09:37:51;8.27;;;6.60;;
19402;SDS011;9837;48.888;8.998;2023-07-24T09:40:26;10.57;;;6.10;;
19402;SDS011;9837;48.888;8.998;2023-07-24T09:42:51;11.73;;;6.63;;
19402;SDS011;9837;48.888;8.998;2023-07-24T09:45:17;8.53;;;6.00;;
19402;SDS011;9837;48.888;8.998;2023-07-24T09:47:42;7.70;;;6.70;;
19402;SDS011;9837;48.888;8.998;2023-07-24T09:50:08;10.00;;;6.03;;
19402;SDS011;9837;48.888;8.998;2023-07-24T09:52:34;14.60;;;5.93;;
19402;SDS011;9837;48.888;8.998;2023-07-24T09:57:48;8.40;;;6.23;;
19402;SDS011;9837;48.888;8.998;2023-07-24T10:00:16;8.30;;;6.20;;
19402;SDS011;9837;48.888;8.998;2023-07-24T10:02:42;11.17;;;6.83;;
19402;SDS011;9837;48.888;8.998;2023-07-24T10:05:09;10.07;;;6.37;;
19402;SDS011;9837;48.888;8.998;2023-07-24T10:07:36;10.37;;;7.57;;
19402;SDS011;9837;48.888;8.998;2023-07-24T10:10:02;7.50;;;6.10;;
19402;SDS011;9837;48.888;8.998;2023-07-24T10:12:29;7.67;;;6.17;;
19402;SDS011;9837;48.888;8.998;2023-07-24T10:14:56;6.97;;;5.60;;
19402;SDS011;9837;48.888;8.998;2023-07-24T10:17:35;8.40;;;6.17;;
19402;SDS011;9837;48.888;8.998;2023-07-24T10:20:05;7.80;;;6.10;;
19402;SDS011;9837;48.888;8.998;2023-07-24T10:22:32;8.13;;;6.33;;
19402;SDS011;9837;48.888;8.998;2023-07-24T10:24:58;11.60;;;6.67;;
19402;SDS011;9837;48.888;8.998;2023-07-24T10:27:24;10.50;;;7.33;;
19402;SDS011;9837;48.888;8.998;2023-07-24T10:30:00;9.37;;;6.30;;
19402;SDS011;9837;48.888;8.998;2023-07-24T10:32:25;11.70;;;6.50;;
19402;SDS011;9837;48.888;8.998;2023-07-24T10:34:59;8.43;;;6.00;;
19402;SDS011;9837;48.888;8.998;2023-07-24T10:37:32;8.67;;;6.43;;
19402;SDS011;9837;48.888;8.998;2023-07-24T10:39:59;6.90;;;5.73;;
19402;SDS011;9837;48.888;8.998;2023-07-24T10:42:25;9.33;;;6.50;;
19402;SDS011;9837;48.888;8.998;2023-07-24T10:45:01;8.73;;;5.97;;
19402;SDS011;9837;48.888;8.998;2023-07-24T10:47:31;8.47;;;5.80;;
19402;SDS011;9837;48.888;8.998;2023-07-24T10:49:59;7.57;;;6.13;;
19402;SDS011;9837;48.888;8.998;2023-07-24T10:52:29;8.47;;;5.90;;
19402;SDS011;9837;48.888;8.998;2023-07-24T10:55:01;7.57;;;6.03;;
19402;SDS011;9837;48.888;8.998;2023-07-24T10:57:31;13.30;;;7.33;;
19402;SDS011;9837;48.888;8.998;2023-07-24T10:59:57;11.83;;;6.33;;
19402;SDS011;9837;48.888;8.998;2023-07-24T11:02:23;9.80;;;6.23;;
19402;SDS011;9837;48.888;8.998;2023-07-24T11:04:49;9.37;;;5.60;;
19402;SDS011;9837;48.888;8.998;2023-07-24T11:07:15;9.10;;;6.63;;
19402;SDS011;9837;48.888;8.998;2023-07-24T11:09:40;9.10;;;5.93;;
19402;SDS011;9837;48.888;8.998;2023-07-24T11:12:10;11.97;;;6.97;;
19402;SDS011;9837;48.888;8.998;2023-07-24T11:14:45;8.37;;;6.73;;
19402;SDS011;9837;48.888;8.998;2023-07-24T11:17:14;9.03;;;6.23;;
19402;SDS011;9837;48.888;8.998;2023-07-24T11:19:40;12.07;;;6.43;;
19402;SDS011;9837;48.888;8.998;2023-07-24T11:22:06;10.43;;;6.63;;
19402;SDS011;9837;48.888;8.998;2023-07-24T11:24:32;8.30;;;5.93;;
19402;SDS011;9837;48.888;8.998;2023-07-24T11:26:57;8.50;;;6.70;;
19402;SDS011;9837;48.888;8.998;2023-07-24T11:29:23;10.30;;;6.60;;
19402;SDS011;9837;48.888;8.998;2023-07-24T11:31:55;11.13;;;6.33;;
19402;SDS011;9837;48.888;8.998;2023-07-24T11:34:22;8.10;;;6.13;;
19402;SDS011;9837;48.888;8.998;2023-07-24T11:36:48;10.57;;;6.10;;
19402;SDS011;9837;48.888;8.998;2023-07-24T11:39:21;8.20;;;6.30;;
19402;SDS011;9837;48.888;8.998;2023-07-24T11:41:47;10.30;;;6.97;;
19402;SDS011;9837;48.888;8.998;2023-07-24T11:44:13;11.77;;;6.67;;
19402;SDS011;9837;48.888;8.998;2023-07-24T11:46:41;9.47;;;6.43;;
19402;SDS011;9837;48.888;8.998;2023-07-24T11:49:08;9.50;;;5.83;;
19402;SDS011;9837;48.888;8.998;2023-07-24T11:51:36;8.67;;;6.27;;
19402;SDS011;9837;48.888;8.998;2023-07-24T11:54:09;9.13;;;6.00;;
19402;SDS011;9837;48.888;8.998;2023-07-24T11:56:36;7.40;;;6.30;;
19402;SDS011;9837;48.888;8.998;2023-07-24T11:59:09;8.70;;;5.70;;
19402;SDS011;9837;48.888;8.998;2023-07-24T12:01:38;8.77;;;6.13;;
19402;SDS011;9837;48.888;8.998;2023-07-24T12:04:04;9.23;;;5.53;;
19402;SDS011;9837;48.888;8.998;2023-07-24T12:06:30;8.03;;;5.70;;
19402;SDS011;9837;48.888;8.998;2023-07-24T12:09:02;9.97;;;6.10;;
19402;SDS011;9837;48.888;8.998;2023-07-24T12:11:30;7.90;;;5.43;;
19402;SDS011;9837;48.888;8.998;2023-07-24T12:13:56;6.53;;;5.07;;
19402;SDS011;9837;48.888;8.998;2023-07-24T12:16:22;7.67;;;5.30;;
19402;SDS011;9837;48.888;8.998;2023-07-24T12:18:48;5.97;;;5.37;;
19402;SDS011;9837;48.888;8.998;2023-07-24T12:21:13;6.97;;;5.10;;
19402;SDS011;9837;48.888;8.998;2023-07-24T12:23:39;9.33;;;5.30;;
19402;SDS011;9837;48.888;8.998;2023-07-24T12:26:04;9.17;;;5.60;;
19402;SDS011;9837;48.888;8.998;2023-07-24T12:28:30;8.50;;;5.40;;
19402;SDS011;9837;48.888;8.998;2023-07-24T12:30:56;8.27;;;5.13;;
19402;SDS011;9837;48.888;8.998;2023-07-24T12:33:21;6.07;;;4.47;;
19402;SDS011;9837;48.888;8.998;2023-07-24T12:35:49;7.10;;;4.90;;
19402;SDS011;9837;48.888;8.998;2023-07-24T12:38:14;6.43;;;4.97;;
19402;SDS011;9837;48.888;8.998;2023-07-24T12:40:40;6.53;;;5.13;;
19402;SDS011;9837;48.888;8.998;2023-07-24T12:43:06;9.17;;;5.40;;
19402;SDS011;9837;48.888;8.998;2023-07-24T12:45:31;7.97;;;5.13;;
19402;SDS011;9837;48.888;8.998;2023-07-24T12:47:57;7.40;;;5.37;;
19402;SDS011;9837;48.888;8.998;2023-07-24T12:50:22;8.27;;;5.30;;
19402;SDS011;9837;48.888;8.998;2023-07-24T12:52:50;7.23;;;5.00;;
19402;SDS011;9837;48.888;8.998;2023-07-24T12:55:16;7.93;;;5.07;;
19402;SDS011;9837;48.888;8.998;2023-07-24T12:57:42;8.20;;;5.43;;
19402;SDS011;9837;48.888;8.998;2023-07-24T13:00:08;6.87;;;4.73;;
19402;SDS011;9837;48.888;8.998;2023-07-24T13:02:34;6.50;;;5.10;;
19402;SDS011;9837;48.888;8.998;2023-07-24T13:05:00;7.93;;;5.10;;
19402;SDS011;9837;48.888;8.998;2023-07-24T13:07:26;8.50;;;6.00;;
19402;SDS011;9837;48.888;8.998;2023-07-24T13:09:51;7.27;;;5.33;;
19402;SDS011;9837;48.888;8.998;2023-07-24T13:12:17;8.80;;;5.20;;
19402;SDS011;9837;48.888;8.998;2023-07-24T13:14:42;6.17;;;5.37;;
19402;SDS011;9837;48.888;8.998;2023-07-24T13:17:11;10.07;;;5.97;;
19402;SDS011;9837;48.888;8.998;2023-07-24T13:19:37;8.17;;;5.00;;
19402;SDS011;9837;48.888;8.998;2023-07-24T13:22:03;10.07;;;5.30;;
19402;SDS011;9837;48.888;8.998;2023-07-24T13:24:29;6.43;;;5.03;;
19402;SDS011;9837;48.888;8.998;2023-07-24T13:26:54;7.50;;;5.23;;
19402;SDS011;9837;48.888;8.998;2023-07-24T13:29:20;7.83;;;5.20;;
19402;SDS011;9837;48.888;8.998;2023-07-24T13:31:45;6.87;;;5.17;;
19402;SDS011;9837;48.888;8.998;2023-07-24T13:34:11;7.40;;;5.53;;
19402;SDS011;9837;48.888;8.998;2023-07-24T13:36:36;6.40;;;5.27;;
19402;SDS011;9837;48.888;8.998;2023-07-24T13:39:02;7.07;;;5.57;;
19402;SDS011;9837;48.888;8.998;2023-07-24T13:41:28;7.83;;;5.17;;
19402;SDS011;9837;48.888;8.998;2023-07-24T13:43:53;6.37;;;4.90;;
19402;SDS011;9837;48.888;8.998;2023-07-24T13:46:19;6.30;;;4.97;;
19402;SDS011;9837;48.888;8.998;2023-07-24T13:48:44;8.50;;;5.43;;
19402;SDS011;9837;48.888;8.998;2023-07-24T13:51:10;8.07;;;5.17;;
19402;SDS011;9837;48.888;8.998;2023-07-24T13:53:36;5.80;;;4.90;;
19402;SDS011;9837;48.888;8.998;2023-07-24T13:56:02;6.97;;;5.33;;
19402;SDS011;9837;48.888;8.998;2023-07-24T13:58:28;6.53;;;5.03;;
19402;SDS011;9837;48.888;8.998;2023-07-24T14:00:54;6.37;;;5.33;;
19402;SDS011;9837;48.888;8.998;2023-07-24T14:03:20;6.70;;;5.30;;
19402;SDS011;9837;48.888;8.998;2023-07-24T14:05:45;5.90;;;5.07;;
19402;SDS011;9837;48.888;8.998;2023-07-24T14:08:11;5.93;;;4.57;;
19402;SDS011;9837;48.888;8.998;2023-07-24T14:10:36;9.60;;;5.00;;
19402;SDS011;9837;48.888;8.998;2023-07-24T14:13:03;6.37;;;4.57;;
19402;SDS011;9837;48.888;8.998;2023-07-24T14:15:29;6.07;;;4.83;;
19402;SDS011;9837;48.888;8.998;2023-07-24T14:17:55;5.60;;;4.83;;
19402;SDS011;9837;48.888;8.998;2023-07-24T14:20:20;8.47;;;5.03;;
19402;SDS011;9837;48.888;8.998;2023-07-24T14:22:46;5.60;;;4.80;;
19402;SDS011;9837;48.888;8.998;2023-07-24T14:25:11;5.27;;;4.73;;
19402;SDS011;9837;48.888;8.998;2023-07-24T14:27:37;6.05;;;5.00;;
19402;SDS011;9837;48.888;8.998;2023-07-24T14:30:03;7.00;;;4.90;;
19402;SDS011;9837;48.888;8.998;2023-07-24T14:32:29;6.97;;;4.43;;
19402;SDS011;9837;48.888;8.998;2023-07-24T14:34:54;5.00;;;4.30;;
19402;SDS011;9837;48.888;8.998;2023-07-24T14:37:20;6.95;;;4.30;;
19402;SDS011;9837;48.888;8.998;2023-07-24T14:39:45;6.97;;;4.88;;
19402;SDS011;9837;48.888;8.998;2023-07-24T14:42:11;5.13;;;4.50;;
19402;SDS011;9837;48.888;8.998;2023-07-24T14:44:37;5.93;;;4.63;;
19402;SDS011;9837;48.888;8.998;2023-07-24T14:47:03;4.47;;;3.70;;
19402;SDS011;9837;48.888;8.998;2023-07-24T14:49:29;4.13;;;3.72;;
19402;SDS011;9837;48.888;8.998;2023-07-24T14:51:54;6.15;;;4.32;;
19402;SDS011;9837;48.888;8.998;2023-07-24T14:54:20;4.95;;;4.07;;
19402;SDS011;9837;48.888;8.998;2023-07-24T14:56:46;4.20;;;3.72;;